Kaduna, Kaduna Airport (DNKA)

NameKaduna Airport
CityKaduna
CountryNigeria
ICAODNKA
IATAKAD
Altitude632 m
CoordinatesGoogle Map
Live Air TrafficLiveATC.net
METARDNKA 251700Z 23007KT 9999 TS BKN012 FEW020CB 30/20 Q1009
2020-04-25 17:00:00 Wind: Southwest (230°) 3.6 m/s - Visibility: > 10000 m - Weather: Thunderstorm - Temperature: 30 °C - Dew point: 20 °C - Humidity: 55% - Pressure: 1009 hPa

Sorry, no flights used the airport in this database.